Time,TemperatureF,DewpointF,PressureIn,WindDirection,WindDirectionDegrees,WindSpeedMPH,WindSpeedGustMPH,Humidity,HourlyPrecipIn,Conditions,Clouds,dailyrainin,SoftwareType,DateUTC
2013-01-28 00:00:00,21.4,11.4,30.07,WNW,292,0.0,0.0,65,0.00,,,0.02,WUHU21623XXSP,2013-01-28 08:00:00,
2013-01-28 00:05:00,21.4,11.4,30.07,WNW,292,0.0,0.0,65,0.00,,,0.00,WUHU21623XXSP,2013-01-28 08:05:00,
2013-01-28 00:12:00,21.4,11.7,30.06,NNW,337,0.0,0.0,66,0.00,,,0.00,WUHU21623XXSP,2013-01-28 08:12:00,
2013-01-28 00:17:00,21.4,11.7,30.06,NNW,337,0.0,0.0,66,0.00,,,0.00,WUHU21623XXSP,2013-01-28 08:17:00,
2013-01-28 00:23:00,21.0,11.4,30.06,NNW,337,0.0,0.0,66,0.00,,,0.00,WUHU21623XXSP,2013-01-28 08:23:00,
2013-01-28 00:29:00,21.0,11.4,30.06,NNW,337,0.0,0.0,66,0.00,,,0.00,WUHU21623XXSP,2013-01-28 08:29:00,
2013-01-28 00:34:00,21.0,11.4,30.06,NNW,337,0.0,0.0,66,0.00,,,0.00,WUHU21623XXSP,2013-01-28 08:34:00,
2013-01-28 00:39:00,21.0,11.4,30.06,NNW,337,0.0,0.0,66,0.00,,,0.00,WUHU21623XXSP,2013-01-28 08:39:00,
2013-01-28 00:44:00,21.0,11.4,30.06,SE,135,0.0,0.0,66,0.00,,,0.00,WUHU21623XXSP,2013-01-28 08:44:00,
2013-01-28 00:49:00,21.0,11.4,30.06,SE,135,0.0,0.0,66,0.00,,,0.00,WUHU21623XXSP,2013-01-28 08:49:00,
2013-01-28 00:55:00,20.8,11.2,30.06,SE,135,0.0,0.0,66,0.00,,,0.00,WUHU21623XXSP,2013-01-28 08:55:00,
2013-01-28 01:00:00,20.8,11.2,30.06,SE,135,0.0,0.0,66,0.00,,,0.00,WUHU21623XXSP,2013-01-28 09:00:00,
2013-01-28 01:05:00,20.8,11.2,30.06,SSW,202,0.0,0.0,66,0.00,,,0.00,WUHU21623XXSP,2013-01-28 09:05:00,
2013-01-28 01:12:00,20.5,10.8,30.06,SSE,157,0.0,0.0,66,0.00,,,0.00,WUHU21623XXSP,2013-01-28 09:12:00,
2013-01-28 01:23:00,20.5,11.2,30.06,ESE,112,0.0,0.0,67,0.00,,,0.00,WUHU21623XXSP,2013-01-28 09:23:00,
2013-01-28 01:29:00,20.5,11.2,30.06,SSE,157,0.0,0.0,67,0.00,,,0.00,WUHU21623XXSP,2013-01-28 09:29:00,
2013-01-28 01:34:00,20.3,11.2,30.06,SE,135,0.0,0.0,67,0.00,,,0.00,WUHU21623XXSP,2013-01-28 09:34:00,
2013-01-28 01:40:00,20.3,11.0,30.05,SSE,157,0.0,0.0,67,0.00,,,0.00,WUHU21623XXSP,2013-01-28 09:40:00,
2013-01-28 01:45:00,20.3,11.0,30.05,South,180,0.0,0.0,67,0.00,,,0.00,WUHU21623XXSP,2013-01-28 09:45:00,
2013-01-28 01:50:00,20.3,11.0,30.05,SSE,157,0.0,0.0,67,0.00,,,0.00,WUHU21623XXSP,2013-01-28 09:50:00,
2013-01-28 01:55:00,20.3,11.3,30.05,SSE,157,0.0,0.0,68,0.00,,,0.00,WUHU21623XXSP,2013-01-28 09:55:00,
2013-01-28 02:00:00,20.3,11.3,30.05,SSE,157,0.0,0.0,68,0.00,,,0.00,WUHU21623XXSP,2013-01-28 10:00:00,
2013-01-28 02:05:00,20.1,11.2,30.05,SSE,157,0.0,0.0,68,0.00,,,0.00,WUHU21623XXSP,2013-01-28 10:05:00,
2013-01-28 02:10:00,20.1,11.2,30.05,SSE,157,0.0,0.0,68,0.00,,,0.00,WUHU21623XXSP,2013-01-28 10:10:00,
2013-01-28 02:16:00,19.9,11.0,30.06,SSE,157,0.0,0.0,68,0.00,,,0.00,WUHU21623XXSP,2013-01-28 10:16:00,
2013-01-28 02:33:00,19.4,10.4,30.05,SSW,202,0.0,0.0,68,0.00,,,0.00,WUHU21623XXSP,2013-01-28 10:33:00,
2013-01-28 02:42:00,19.0,10.3,30.05,WSW,247,0.0,0.0,68,0.00,,,0.00,WUHU21623XXSP,2013-01-28 10:42:00,
2013-01-28 02:48:00,19.0,10.1,30.05,West,270,0.0,0.0,68,0.00,,,0.00,WUHU21623XXSP,2013-01-28 10:48:00,
2013-01-28 02:55:00,18.7,9.8,30.06,SSE,157,0.0,0.0,68,0.00,,,0.00,WUHU21623XXSP,2013-01-28 10:55:00,
2013-01-28 03:00:00,18.5,9.6,30.06,SSW,202,0.0,0.0,68,0.00,,,0.00,WUHU21623XXSP,2013-01-28 11:00:00,
2013-01-28 03:05:00,18.3,9.5,30.06,SSE,157,0.0,0.0,68,0.00,,,0.00,WUHU21623XXSP,2013-01-28 11:05:00,
2013-01-28 03:10:00,18.1,9.3,30.06,East,90,0.0,0.0,68,0.00,,,0.00,WUHU21623XXSP,2013-01-28 11:10:00,
2013-01-28 03:15:00,18.0,9.1,30.05,SSE,157,0.0,0.0,68,0.00,,,0.00,WUHU21623XXSP,2013-01-28 11:15:00,
2013-01-28 03:20:00,17.8,9.0,30.06,SE,135,0.0,0.0,68,0.00,,,0.00,WUHU21623XXSP,2013-01-28 11:20:00,
2013-01-28 03:25:00,17.4,8.6,30.05,SSE,157,0.0,0.0,68,0.00,,,0.00,WUHU21623XXSP,2013-01-28 11:25:00,
2013-01-28 03:31:00,17.2,8.5,30.05,SSE,157,0.0,0.0,68,0.00,,,0.00,WUHU21623XXSP,2013-01-28 11:31:00,
2013-01-28 03:40:00,16.9,8.1,30.05,ESE,112,0.0,0.0,68,0.00,,,0.00,WUHU21623XXSP,2013-01-28 11:40:00,
2013-01-28 03:46:00,16.5,7.7,30.05,ESE,112,0.0,0.0,68,0.00,,,0.00,WUHU21623XXSP,2013-01-28 11:46:00,
2013-01-28 03:55:00,16.3,7.6,30.05,ESE,112,0.0,0.0,69,0.00,,,0.00,WUHU21623XXSP,2013-01-28 11:55:00,
2013-01-28 04:00:00,16.3,7.9,30.05,ESE,112,0.0,0.0,69,0.00,,,0.00,WUHU21623XXSP,2013-01-28 12:00:00,
2013-01-28 04:05:00,16.2,7.7,30.05,ESE,112,0.0,0.0,69,0.00,,,0.00,WUHU21623XXSP,2013-01-28 12:05:00,
2013-01-28 04:10:00,15.8,7.4,30.04,ESE,112,0.0,0.0,69,0.00,,,0.00,WUHU21623XXSP,2013-01-28 12:10:00,
2013-01-28 04:18:00,15.6,7.2,30.04,WNW,292,0.0,0.0,69,0.00,,,0.00,WUHU21623XXSP,2013-01-28 12:18:00,
2013-01-28 04:27:00,15.3,6.9,30.05,NNW,337,0.0,0.0,69,0.00,,,0.00,WUHU21623XXSP,2013-01-28 12:27:00,
2013-01-28 04:32:00,15.1,6.9,30.05,WNW,292,0.0,0.0,69,0.00,,,0.00,WUHU21623XXSP,2013-01-28 12:32:00,
2013-01-28 04:46:00,14.9,6.9,30.04,NNE,22,0.0,0.0,70,0.00,,,0.00,WUHU21623XXSP,2013-01-28 12:46:00,
2013-01-28 04:53:00,14.7,6.7,30.04,SW,225,0.0,0.0,70,0.00,,,0.00,WUHU21623XXSP,2013-01-28 12:53:00,
2013-01-28 04:58:00,14.7,6.7,30.04,SW,225,0.0,0.0,70,0.00,,,0.00,WUHU21623XXSP,2013-01-28 12:58:00,
2013-01-28 05:03:00,14.7,6.7,30.04,NNW,337,0.0,0.0,70,0.00,,,0.00,WUHU21623XXSP,2013-01-28 13:03:00,
2013-01-28 05:08:00,14.7,6.7,30.05,NNW,337,0.0,0.0,70,0.00,,,0.00,WUHU21623XXSP,2013-01-28 13:08:00,
2013-01-28 05:13:00,14.7,6.7,30.05,NNW,337,0.0,0.0,70,0.00,,,0.00,WUHU21623XXSP,2013-01-28 13:13:00,
2013-01-28 05:20:00,14.5,6.6,30.04,NNW,337,0.0,0.0,70,0.00,,,0.00,WUHU21623XXSP,2013-01-28 13:20:00,
2013-01-28 05:27:00,14.5,6.6,30.04,NNW,337,0.0,0.0,70,0.00,,,0.00,WUHU21623XXSP,2013-01-28 13:27:00,
2013-01-28 05:42:00,14.4,6.7,30.05,NNW,337,0.0,0.0,71,0.00,,,0.00,WUHU21623XXSP,2013-01-28 13:42:00,
2013-01-28 05:48:00,14.4,6.7,30.05,NNW,337,0.0,0.0,71,0.00,,,0.00,WUHU21623XXSP,2013-01-28 13:48:00,
2013-01-28 05:53:00,14.2,6.5,30.05,NNW,337,0.0,0.0,71,0.00,,,0.00,WUHU21623XXSP,2013-01-28 13:53:00,
2013-01-28 05:58:00,14.2,6.5,30.05,NNW,337,0.0,0.0,71,0.00,,,0.00,WUHU21623XXSP,2013-01-28 13:58:00,
2013-01-28 06:03:00,14.2,6.5,30.05,NNW,337,0.0,0.0,71,0.00,,,0.00,WUHU21623XXSP,2013-01-28 14:03:00,
2013-01-28 06:08:00,14.2,6.5,30.05,SSE,157,0.0,0.0,71,0.00,,,0.00,WUHU21623XXSP,2013-01-28 14:08:00,
2013-01-28 06:18:00,13.8,6.2,30.05,South,180,0.0,0.0,71,0.00,,,0.00,WUHU21623XXSP,2013-01-28 14:18:00,
2013-01-28 06:23:00,13.8,6.2,30.05,South,180,0.0,0.0,71,0.00,,,0.00,WUHU21623XXSP,2013-01-28 14:23:00,
2013-01-28 06:29:00,13.8,6.2,30.05,SSE,157,0.0,0.0,71,0.00,,,0.00,WUHU21623XXSP,2013-01-28 14:29:00,
2013-01-28 06:34:00,13.8,6.2,30.06,SSE,157,0.0,0.0,71,0.00,,,0.00,WUHU21623XXSP,2013-01-28 14:34:00,
2013-01-28 06:40:00,13.6,6.0,30.06,South,180,0.0,0.0,71,0.00,,,0.00,WUHU21623XXSP,2013-01-28 14:40:00,
2013-01-28 06:45:00,13.6,6.0,30.06,South,180,0.0,0.0,71,0.00,,,0.00,WUHU21623XXSP,2013-01-28 14:45:00,
2013-01-28 06:50:00,13.6,6.0,30.06,SSE,157,0.0,0.0,71,0.00,,,0.00,WUHU21623XXSP,2013-01-28 14:50:00,
2013-01-28 06:55:00,13.3,5.6,30.06,ESE,112,0.0,0.0,71,0.00,,,0.00,WUHU21623XXSP,2013-01-28 14:55:00,
2013-01-28 07:00:00,13.3,5.6,30.06,ESE,112,0.0,0.0,71,0.00,,,0.00,WUHU21623XXSP,2013-01-28 15:00:00,
2013-01-28 07:05:00,13.3,5.6,30.06,SSE,157,0.0,0.0,71,0.00,,,0.00,WUHU21623XXSP,2013-01-28 15:05:00,
2013-01-28 07:10:00,12.9,5.3,30.06,South,180,0.0,0.0,71,0.00,,,0.00,WUHU21623XXSP,2013-01-28 15:10:00,
2013-01-28 07:16:00,12.9,5.3,30.07,South,180,0.0,0.0,71,0.00,,,0.00,WUHU21623XXSP,2013-01-28 15:16:00,
2013-01-28 07:27:00,12.7,5.4,30.07,South,180,0.0,0.0,72,0.00,,,0.00,WUHU21623XXSP,2013-01-28 15:27:00,
2013-01-28 07:35:00,12.7,5.4,30.07,SSE,157,0.0,0.0,72,0.00,,,0.00,WUHU21623XXSP,2013-01-28 15:35:00,
2013-01-28 07:44:00,12.9,5.6,30.08,SSW,202,0.0,0.0,72,0.00,,,0.00,WUHU21623XXSP,2013-01-28 15:44:00,
2013-01-28 07:52:00,13.6,6.6,30.07,SW,225,0.0,0.0,73,0.00,,,0.00,WUHU21623XXSP,2013-01-28 15:52:00,
2013-01-28 07:57:00,13.6,6.6,30.07,SW,225,0.0,0.0,73,0.00,,,0.00,WUHU21623XXSP,2013-01-28 15:57:00,
2013-01-28 08:01:00,14.2,7.1,30.08,SSE,157,0.0,0.0,73,0.00,,,0.00,WUHU21623XXSP,2013-01-28 16:01:00,
2013-01-28 08:03:00,14.2,7.1,30.08,SSE,157,0.0,0.0,73,0.00,,,0.00,WUHU21623XXSP,2013-01-28 16:03:00,
2013-01-28 08:12:00,14.5,7.4,30.07,SSE,157,0.0,0.0,73,0.00,,,0.00,WUHU21623XXSP,2013-01-28 16:12:00,
2013-01-28 08:17:00,14.9,7.8,30.07,SSE,157,0.0,0.0,73,0.00,,,0.00,WUHU21623XXSP,2013-01-28 16:17:00,
2013-01-28 08:22:00,15.4,8.6,30.08,SSW,202,0.0,0.0,74,0.00,,,0.00,WUHU21623XXSP,2013-01-28 16:22:00,
2013-01-28 08:27:00,15.6,8.7,30.07,South,180,0.0,0.0,74,0.00,,,0.00,WUHU21623XXSP,2013-01-28 16:27:00,
2013-01-28 08:32:00,16.5,9.4,30.08,South,180,0.0,0.0,74,0.00,,,0.00,WUHU21623XXSP,2013-01-28 16:32:00,
2013-01-28 08:37:00,16.7,9.8,30.08,South,180,0.0,0.0,74,0.00,,,0.00,WUHU21623XXSP,2013-01-28 16:37:00,
2013-01-28 08:52:00,19.9,13.1,30.08,NW,315,0.0,0.0,76,0.00,,,0.00,WUHU21623XXSP,2013-01-28 16:52:00,
2013-01-28 09:01:00,21.0,14.9,30.08,SE,135,0.0,0.0,77,0.00,,,0.00,WUHU21623XXSP,2013-01-28 17:01:00,
2013-01-28 09:06:00,21.9,15.8,30.08,SE,135,0.0,0.0,77,0.00,,,0.00,WUHU21623XXSP,2013-01-28 17:06:00,
2013-01-28 09:11:00,22.8,16.4,30.09,SE,135,0.0,0.0,76,0.00,,,0.00,WUHU21623XXSP,2013-01-28 17:11:00,
2013-01-28 09:16:00,24.1,17.3,30.08,SW,225,0.0,0.0,75,0.00,,,0.00,WUHU21623XXSP,2013-01-28 17:16:00,
2013-01-28 09:21:00,24.6,17.8,30.09,SW,225,0.0,0.0,75,0.00,,,0.00,WUHU21623XXSP,2013-01-28 17:21:00,
2013-01-28 09:26:00,25.0,17.8,30.08,SE,135,0.0,0.0,74,0.00,,,0.00,WUHU21623XXSP,2013-01-28 17:26:00,
2013-01-28 09:33:00,25.9,18.0,30.08,South,180,0.0,0.0,72,0.00,,,0.00,WUHU21623XXSP,2013-01-28 17:33:00,
2013-01-28 09:40:00,26.4,18.6,30.09,SE,135,0.0,0.0,72,0.00,,,0.00,WUHU21623XXSP,2013-01-28 17:40:00,
2013-01-28 09:45:00,26.8,18.9,30.09,South,180,0.0,0.0,72,0.00,,,0.00,WUHU21623XXSP,2013-01-28 17:45:00,
2013-01-28 09:50:00,27.1,19.0,30.09,South,180,0.0,0.0,71,0.00,,,0.00,WUHU21623XXSP,2013-01-28 17:50:00,
2013-01-28 10:05:00,28.2,19.8,30.09,NE,45,0.0,0.0,70,0.00,,,0.00,WUHU21623XXSP,2013-01-28 18:05:00,
2013-01-28 10:10:00,28.6,20.1,30.10,NNE,22,0.0,0.0,70,0.00,,,0.00,WUHU21623XXSP,2013-01-28 18:10:00,
2013-01-28 10:16:00,28.8,20.3,30.10,North,0,0.0,0.0,70,0.00,,,0.00,WUHU21623XXSP,2013-01-28 18:16:00,
2013-01-28 10:21:00,29.1,20.2,30.10,NE,45,0.0,0.0,69,0.00,,,0.00,WUHU21623XXSP,2013-01-28 18:21:00,
2013-01-28 10:37:00,30.0,20.7,30.11,SSW,202,0.0,0.0,68,0.00,,,0.00,WUHU21623XXSP,2013-01-28 18:37:00,
2013-01-28 10:46:00,30.7,21.0,30.11,ESE,112,0.0,0.0,67,0.00,,,0.00,WUHU21623XXSP,2013-01-28 18:46:00,
2013-01-28 10:51:00,31.1,21.4,30.11,WNW,292,0.0,0.0,67,0.00,,,0.00,WUHU21623XXSP,2013-01-28 18:51:00,
2013-01-28 10:56:00,31.6,21.6,30.11,SW,225,1.8,1.8,66,0.00,,,0.00,WUHU21623XXSP,2013-01-28 18:56:00,
2013-01-28 11:03:00,32.4,21.9,30.11,SSE,157,0.0,1.8,65,0.00,,,0.00,WUHU21623XXSP,2013-01-28 19:03:00,
2013-01-28 11:12:00,33.4,22.5,30.12,SE,135,2.0,2.0,64,0.00,,,0.00,WUHU21623XXSP,2013-01-28 19:12:00,
2013-01-28 11:18:00,34.2,22.8,30.11,SE,135,0.9,2.0,63,0.00,,,0.00,WUHU21623XXSP,2013-01-28 19:18:00,
2013-01-28 11:27:00,35.2,23.4,30.12,WSW,247,0.0,0.9,61,0.00,,,0.00,WUHU21623XXSP,2013-01-28 19:27:00,
2013-01-28 11:32:00,35.8,23.4,30.12,WNW,292,0.0,0.0,61,0.00,,,0.00,WUHU21623XXSP,2013-01-28 19:32:00,
2013-01-28 11:37:00,35.8,23.7,30.11,South,180,0.0,0.0,61,0.00,,,0.00,WUHU21623XXSP,2013-01-28 19:37:00,
2013-01-28 11:42:00,36.7,24.2,30.12,NNE,22,0.0,0.0,60,0.00,,,0.00,WUHU21623XXSP,2013-01-28 19:42:00,
2013-01-28 11:47:00,37.0,24.3,30.12,NNE,22,0.0,0.0,60,0.00,,,0.00,WUHU21623XXSP,2013-01-28 19:47:00,
2013-01-28 11:54:00,38.1,25.0,30.11,East,90,0.0,0.0,59,0.00,,,0.00,WUHU21623XXSP,2013-01-28 19:54:00,
2013-01-28 11:59:00,38.8,25.2,30.11,NE,45,0.0,0.0,58,0.00,,,0.00,WUHU21623XXSP,2013-01-28 19:59:00,
2013-01-28 12:14:00,40.1,24.7,30.11,SSW,202,0.0,0.0,54,0.00,,,0.00,WUHU21623XXSP,2013-01-28 20:14:00,
2013-01-28 12:19:00,40.3,24.8,30.10,SE,135,0.0,0.0,54,0.00,,,0.00,WUHU21623XXSP,2013-01-28 20:19:00,
2013-01-28 12:27:00,40.6,25.2,30.10,South,180,3.1,3.1,54,0.00,,,0.00,WUHU21623XXSP,2013-01-28 20:27:00,
2013-01-28 12:33:00,41.2,24.8,30.10,SE,135,1.8,3.1,52,0.00,,,0.00,WUHU21623XXSP,2013-01-28 20:33:00,
2013-01-28 12:39:00,41.2,24.3,30.10,NNE,22,0.0,1.8,51,0.00,,,0.00,WUHU21623XXSP,2013-01-28 20:39:00,
2013-01-28 12:44:00,41.4,24.5,30.10,South,180,5.8,5.8,51,0.00,,,0.00,WUHU21623XXSP,2013-01-28 20:44:00,
2013-01-28 12:50:00,41.7,24.9,30.10,ENE,67,0.0,5.8,51,0.00,,,0.00,WUHU21623XXSP,2013-01-28 20:50:00,
2013-01-28 12:55:00,42.1,25.2,30.10,NNW,337,0.0,0.0,51,0.00,,,0.00,WUHU21623XXSP,2013-01-28 20:55:00,
2013-01-28 13:00:00,42.4,25.2,30.10,WNW,292,0.0,0.0,51,0.00,,,0.00,WUHU21623XXSP,2013-01-28 21:00:00,
2013-01-28 13:05:00,42.6,25.3,30.10,SSE,157,3.1,3.1,50,0.00,,,0.00,WUHU21623XXSP,2013-01-28 21:05:00,
2013-01-28 13:10:00,42.6,24.8,30.10,WNW,292,4.5,4.5,49,0.00,,,0.00,WUHU21623XXSP,2013-01-28 21:10:00,
2013-01-28 13:24:00,40.3,21.3,30.10,NW,315,6.9,6.9,46,0.00,,,0.00,WUHU21623XXSP,2013-01-28 21:24:00,
2013-01-28 13:29:00,39.9,20.7,30.10,NW,315,10.5,10.5,46,0.00,,,0.00,WUHU21623XXSP,2013-01-28 21:29:00,
2013-01-28 13:34:00,39.4,20.2,30.10,NW,315,5.6,10.5,46,0.00,,,0.00,WUHU21623XXSP,2013-01-28 21:34:00,
2013-01-28 13:39:00,39.0,20.4,30.10,NW,315,13.0,13.0,47,0.00,,,0.00,WUHU21623XXSP,2013-01-28 21:39:00,
2013-01-28 13:44:00,38.8,20.2,30.10,North,0,4.5,13.0,47,0.00,,,0.00,WUHU21623XXSP,2013-01-28 21:44:00,
2013-01-28 13:49:00,38.8,20.2,30.10,NNW,337,3.4,4.5,47,0.00,,,0.00,WUHU21623XXSP,2013-01-28 21:49:00,
2013-01-28 13:54:00,38.8,20.2,30.10,North,0,4.5,4.5,47,0.00,,,0.00,WUHU21623XXSP,2013-01-28 21:54:00,
2013-01-28 14:01:00,39.0,20.4,30.10,NW,315,6.7,6.7,46,0.00,,,0.00,WUHU21623XXSP,2013-01-28 22:01:00,
2013-01-28 14:07:00,39.4,20.2,30.10,WNW,292,5.6,6.7,46,0.00,,,0.00,WUHU21623XXSP,2013-01-28 22:07:00,
2013-01-28 14:12:00,39.4,20.2,30.10,NW,315,11.2,11.2,46,0.00,,,0.00,WUHU21623XXSP,2013-01-28 22:12:00,
2013-01-28 14:22:00,39.0,19.9,30.10,NW,315,6.0,6.0,46,0.00,,,0.00,WUHU21623XXSP,2013-01-28 22:22:00,
2013-01-28 14:27:00,38.8,19.7,30.11,NE,45,3.4,6.0,46,0.00,,,0.00,WUHU21623XXSP,2013-01-28 22:27:00,
2013-01-28 14:32:00,38.8,20.2,30.11,WNW,292,6.3,6.3,47,0.00,,,0.00,WUHU21623XXSP,2013-01-28 22:32:00,
2013-01-28 14:37:00,38.8,20.2,30.11,NNW,337,4.3,6.3,47,0.00,,,0.00,WUHU21623XXSP,2013-01-28 22:37:00,
2013-01-28 14:42:00,38.8,20.2,30.10,NNW,337,2.9,4.3,47,0.00,,,0.00,WUHU21623XXSP,2013-01-28 22:42:00,
2013-01-28 14:48:00,38.8,20.2,30.11,NW,315,4.5,4.5,47,0.00,,,0.00,WUHU21623XXSP,2013-01-28 22:48:00,
2013-01-28 14:53:00,38.7,20.0,30.10,WNW,292,3.8,4.5,47,0.00,,,0.00,WUHU21623XXSP,2013-01-28 22:53:00,
2013-01-28 14:59:00,38.8,20.2,30.10,WNW,292,8.3,8.3,47,0.00,,,0.00,WUHU21623XXSP,2013-01-28 22:59:00,
2013-01-28 15:04:00,38.8,20.7,30.11,North,0,2.2,8.3,48,0.00,,,0.00,WUHU21623XXSP,2013-01-28 23:04:00,
2013-01-28 15:11:00,38.8,20.7,30.10,NW,315,3.4,3.4,48,0.00,,,0.00,WUHU21623XXSP,2013-01-28 23:11:00,
2013-01-28 15:16:00,38.8,20.7,30.11,NW,315,6.7,6.7,48,0.00,,,0.00,WUHU21623XXSP,2013-01-28 23:16:00,
2013-01-28 15:22:00,38.8,20.2,30.11,WNW,292,3.4,6.7,47,0.00,,,0.00,WUHU21623XXSP,2013-01-28 23:22:00,
2013-01-28 15:31:00,38.5,19.9,30.11,WNW,292,3.6,3.6,47,0.00,,,0.00,WUHU21623XXSP,2013-01-28 23:31:00,
2013-01-28 15:36:00,38.3,20.2,30.10,WNW,292,0.0,3.6,48,0.00,,,0.00,WUHU21623XXSP,2013-01-28 23:36:00,
2013-01-28 15:44:00,38.1,20.1,30.11,North,0,3.1,3.1,48,0.00,,,0.00,WUHU21623XXSP,2013-01-28 23:44:00,
2013-01-28 15:49:00,37.9,19.9,30.11,WNW,292,2.0,3.1,48,0.00,,,0.00,WUHU21623XXSP,2013-01-28 23:49:00,
2013-01-28 15:54:00,37.9,19.9,30.11,NNW,337,4.5,4.5,48,0.00,,,0.00,WUHU21623XXSP,2013-01-28 23:54:00,
2013-01-28 15:59:00,37.8,19.8,30.11,North,0,4.5,4.5,48,0.00,,,0.00,WUHU21623XXSP,2013-01-28 23:59:00,
2013-01-28 16:04:00,37.6,19.6,30.11,NNW,337,1.3,4.5,48,0.00,,,0.00,WUHU21623XXSP,2013-01-29 00:04:00,
2013-01-28 16:09:00,37.4,19.4,30.11,NNW,337,2.2,2.2,48,0.00,,,0.00,WUHU21623XXSP,2013-01-29 00:09:00,
2013-01-28 16:14:00,37.2,19.3,30.11,NNW,337,0.0,2.2,48,0.00,,,0.00,WUHU21623XXSP,2013-01-29 00:14:00,
2013-01-28 16:20:00,37.2,19.8,30.11,WNW,292,0.0,0.0,49,0.00,,,0.00,WUHU21623XXSP,2013-01-29 00:20:00,
2013-01-28 16:25:00,37.0,19.6,30.12,WNW,292,0.0,0.0,49,0.00,,,0.00,WUHU21623XXSP,2013-01-29 00:25:00,
2013-01-28 16:46:00,36.5,19.7,30.12,South,180,0.0,0.0,50,0.00,,,0.00,WUHU21623XXSP,2013-01-29 00:46:00,
2013-01-28 16:54:00,36.0,19.2,30.12,South,180,0.0,0.0,50,0.00,,,0.00,WUHU21623XXSP,2013-01-29 00:54:00,
2013-01-28 17:16:00,35.2,18.9,30.12,SSE,157,0.0,0.0,51,0.00,,,0.00,WUHU21623XXSP,2013-01-29 01:16:00,
2013-01-28 17:26:00,34.9,18.6,30.12,SSE,157,0.0,0.0,51,0.00,,,0.00,WUHU21623XXSP,2013-01-29 01:26:00,
2013-01-28 17:39:00,34.2,18.0,30.13,NE,45,0.0,0.0,51,0.00,,,0.00,WUHU21623XXSP,2013-01-29 01:39:00,
2013-01-28 17:54:00,33.6,17.8,30.13,WNW,292,0.0,0.0,52,0.00,,,0.00,WUHU21623XXSP,2013-01-29 01:54:00,
2013-01-28 18:07:00,33.1,17.7,30.13,SE,135,0.0,0.0,53,0.00,,,0.00,WUHU21623XXSP,2013-01-29 02:07:00,
2013-01-28 18:13:00,32.9,17.5,30.13,NE,45,0.0,0.0,53,0.00,,,0.00,WUHU21623XXSP,2013-01-29 02:13:00,
2013-01-28 18:18:00,32.7,17.4,30.13,East,90,0.0,0.0,53,0.00,,,0.00,WUHU21623XXSP,2013-01-29 02:18:00,
2013-01-28 18:24:00,32.7,17.4,30.13,East,90,0.0,0.0,53,0.00,,,0.00,WUHU21623XXSP,2013-01-29 02:24:00,
2013-01-28 18:29:00,32.7,17.4,30.14,East,90,0.0,0.0,53,0.00,,,0.00,WUHU21623XXSP,2013-01-29 02:29:00,
2013-01-28 18:41:00,32.5,17.7,30.13,SE,135,0.0,0.0,54,0.00,,,0.00,WUHU21623XXSP,2013-01-29 02:41:00,
2013-01-28 18:50:00,32.2,17.3,30.14,NE,45,0.0,0.0,54,0.00,,,0.00,WUHU21623XXSP,2013-01-29 02:50:00,
2013-01-28 18:55:00,32.2,17.8,30.13,NE,45,0.0,0.0,55,0.00,,,0.00,WUHU21623XXSP,2013-01-29 02:55:00,
2013-01-28 19:00:00,32.2,17.8,30.14,East,90,0.0,0.0,55,0.00,,,0.00,WUHU21623XXSP,2013-01-29 03:00:00,
2013-01-28 19:07:00,32.2,17.8,30.14,East,90,0.0,0.0,55,0.00,,,0.00,WUHU21623XXSP,2013-01-29 03:07:00,
2013-01-28 19:13:00,31.8,17.9,30.14,ENE,67,0.0,0.0,56,0.00,,,0.00,WUHU21623XXSP,2013-01-29 03:13:00,
2013-01-28 19:24:00,31.8,17.9,30.14,NE,45,0.0,0.0,56,0.00,,,0.00,WUHU21623XXSP,2013-01-29 03:24:00,
2013-01-28 19:29:00,31.8,17.9,30.14,NE,45,0.0,0.0,56,0.00,,,0.00,WUHU21623XXSP,2013-01-29 03:29:00,
2013-01-28 19:34:00,31.8,17.9,30.14,South,180,1.8,1.8,56,0.00,,,0.00,WUHU21623XXSP,2013-01-29 03:34:00,
2013-01-28 19:39:00,31.6,18.1,30.14,SSE,157,0.0,1.8,57,0.00,,,0.00,WUHU21623XXSP,2013-01-29 03:39:00,
2013-01-28 19:44:00,31.6,18.1,30.14,SSE,157,0.0,0.0,57,0.00,,,0.00,WUHU21623XXSP,2013-01-29 03:44:00,
2013-01-28 19:52:00,31.6,18.1,30.14,ESE,112,0.0,0.0,57,0.00,,,0.00,WUHU21623XXSP,2013-01-29 03:52:00,
2013-01-28 19:57:00,31.6,18.1,30.14,NNE,22,0.0,0.0,57,0.00,,,0.00,WUHU21623XXSP,2013-01-29 03:57:00,
2013-01-28 20:02:00,31.6,18.1,30.14,NE,45,1.1,1.1,57,0.00,,,0.00,WUHU21623XXSP,2013-01-29 04:02:00,
2013-01-28 20:07:00,31.3,17.8,30.14,SSW,202,0.0,1.1,57,0.00,,,0.00,WUHU21623XXSP,2013-01-29 04:07:00,
2013-01-28 20:15:00,31.3,17.8,30.14,ESE,112,0.0,0.0,58,0.00,,,0.00,WUHU21623XXSP,2013-01-29 04:15:00,
2013-01-28 20:22:00,31.3,18.2,30.14,East,90,0.0,0.0,58,0.00,,,0.00,WUHU21623XXSP,2013-01-29 04:22:00,
2013-01-28 20:28:00,31.3,18.2,30.14,SE,135,1.6,1.6,58,0.00,,,0.00,WUHU21623XXSP,2013-01-29 04:28:00,
2013-01-28 20:33:00,31.3,18.2,30.15,East,90,0.0,1.6,58,0.00,,,0.00,WUHU21623XXSP,2013-01-29 04:33:00,
2013-01-28 20:38:00,31.3,18.2,30.15,North,0,0.0,0.0,58,0.00,,,0.00,WUHU21623XXSP,2013-01-29 04:38:00,
2013-01-28 20:43:00,31.3,18.6,30.15,ENE,67,0.0,0.0,59,0.00,,,0.00,WUHU21623XXSP,2013-01-29 04:43:00,
2013-01-28 20:48:00,31.3,18.6,30.14,East,90,0.0,0.0,59,0.00,,,0.00,WUHU21623XXSP,2013-01-29 04:48:00,
2013-01-28 20:54:00,31.3,18.6,30.14,NE,45,1.3,1.3,59,0.00,,,0.00,WUHU21623XXSP,2013-01-29 04:54:00,
2013-01-28 21:09:00,31.3,18.6,30.14,SSW,202,0.0,0.0,59,0.00,,,0.00,WUHU21623XXSP,2013-01-29 05:09:00,
2013-01-28 21:15:00,31.3,18.6,30.14,ESE,112,0.0,0.0,59,0.00,,,0.00,WUHU21623XXSP,2013-01-29 05:15:00,
2013-01-28 21:35:00,31.3,18.6,30.15,East,90,0.0,0.0,59,0.00,,,0.00,WUHU21623XXSP,2013-01-29 05:35:00,
2013-01-28 21:45:00,31.6,19.0,30.15,ENE,67,0.0,0.0,59,0.00,,,0.00,WUHU21623XXSP,2013-01-29 05:45:00,
2013-01-28 21:50:00,31.6,19.0,30.15,ESE,112,0.0,0.0,59,0.00,,,0.00,WUHU21623XXSP,2013-01-29 05:50:00,
2013-01-28 22:00:00,31.6,19.0,30.15,NE,45,0.0,0.0,59,0.00,,,0.00,WUHU21623XXSP,2013-01-29 06:00:00,
2013-01-28 22:09:00,31.3,18.6,30.15,East,90,0.0,0.0,59,0.00,,,0.00,WUHU21623XXSP,2013-01-29 06:09:00,
2013-01-28 22:14:00,31.3,18.6,30.15,SSE,157,0.0,0.0,59,0.00,,,0.00,WUHU21623XXSP,2013-01-29 06:14:00,
2013-01-28 22:19:00,31.3,18.6,30.14,SE,135,0.0,0.0,59,0.00,,,0.00,WUHU21623XXSP,2013-01-29 06:19:00,
2013-01-28 22:28:00,31.1,18.9,30.15,ESE,112,0.0,0.0,60,0.00,,,0.00,WUHU21623XXSP,2013-01-29 06:28:00,
2013-01-28 22:33:00,31.1,18.9,30.15,East,90,0.0,0.0,60,0.00,,,0.00,WUHU21623XXSP,2013-01-29 06:33:00,
2013-01-28 22:41:00,30.9,18.7,30.15,ENE,67,0.0,0.0,60,0.00,,,0.00,WUHU21623XXSP,2013-01-29 06:41:00,
2013-01-28 22:50:00,30.9,18.7,30.15,West,270,0.0,0.0,60,0.00,,,0.00,WUHU21623XXSP,2013-01-29 06:50:00,
2013-01-28 22:56:00,30.9,18.7,30.15,South,180,0.0,0.0,60,0.00,,,0.00,WUHU21623XXSP,2013-01-29 06:56:00,
2013-01-28 23:01:00,30.9,18.7,30.15,South,180,0.0,0.0,60,0.00,,,0.00,WUHU21623XXSP,2013-01-29 07:01:00,
2013-01-28 23:06:00,30.9,19.0,30.16,SSE,157,0.0,0.0,61,0.00,,,0.00,WUHU21623XXSP,2013-01-29 07:06:00,
2013-01-28 23:11:00,30.9,19.0,30.15,South,180,0.0,0.0,61,0.00,,,0.00,WUHU21623XXSP,2013-01-29 07:11:00,
2013-01-28 23:17:00,30.9,19.0,30.16,SE,135,0.0,0.0,61,0.00,,,0.00,WUHU21623XXSP,2013-01-29 07:17:00,
2013-01-28 23:46:00,31.1,19.6,30.15,ENE,67,0.0,0.0,62,0.00,,,0.00,WUHU21623XXSP,2013-01-29 07:46:00,
2013-01-28 23:51:00,31.3,19.8,30.15,NE,45,0.0,0.0,62,0.00,,,0.00,WUHU21623XXSP,2013-01-29 07:51:00,
2013-01-28 23:56:00,31.3,19.8,30.15,SE,135,0.0,0.0,62,0.00,,,0.00,WUHU21623XXSP,2013-01-29 07:56:00,